Birmingham, AL (35243)

7:00 AM CDT on April 23, 2017 (GMT -0500)
Magnolia Ridge | | Change Station

Elev 778 ft 33.44 °N, 86.75 °W | Updated 20 seconds ago

Mostly Cloudy
Mostly Cloudy
60.4 °F
Feels Like 60.4 °F
N
2.5
Wind Variable Wind from West
Gusts 4.9 mph

Today
High -- | Low -- °F
--% Chance of Precip.
Yesterday
High -- | Low -- °F
Precip. -- in
Pressure 29.81 in
Visibility 4.0 miles
Clouds Few 900 ft
Mostly Cloudy 2400 ft
Overcast 2900 ft
Dew Point 60 °F
Humidity 99%
Rainfall 0.00 in
Snow Depth Not available.
6:06 AM 7:24 PM
Waning Crescent, 12% visible
METAR KBHM 231153Z 30008KT 4SM RA BR FEW009 BKN024 OVC029 15/14 A2983 RMK AO2 SLP095 P0012 60043 70050 T01500144 10194 20150 53008
Pressure 29.81 in
Visibility 4.0 miles
Clouds Few 900 ft
Mostly Cloudy 2400 ft
Overcast 2900 ft
Dew Point 60 °F
Humidity 99%
Rainfall 0.00 in
Snow Depth Not available.
6:06 AM 7:24 PM
Waning Crescent, 12% visible
METAR KBHM 231153Z 30008KT 4SM RA BR FEW009 BKN024 OVC029 15/14 A2983 RMK AO2 SLP095 P0012 60043 70050 T01500144 10194 20150 53008

Get Severe Weather Alerts

Thanks for signing up!

Be on the lookout for a verification email in your inbox.

You'll start receiving the daily forecast at 8 AM.

×

10-Day Weather Forecast

Almanac

Astronomy

Apr. 23, 2017 Rise Set
Actual Time
Civil Twilight
Nautical Twilight
Astronomical Twilight
Moon
Length of Visible Light
Length of Day
Tomorrow will be .
, % of the Moon is Illuminated

Today's Extremes

State Highs State Lows

Community

WunderPhotos

WunderBlog® & News

Nearby

Air Quality

  Air Quality AQ Index Pollutant
Not available.

Snow Depth

Station Depth Elevation

Earthquake Activity

City Distance Mag. Time & Date
Minimum magnitude displayed is 2.5.

Coastal Water Temperatures

Place Temperature

Stations

Nearby Weather Stations

Station Location Temp. Windchill Dew Point Humidity Wind Precip. Elev Updated Type
                   

Watches & Warnings

There are currently no watches in effect.